Terminal Aerodrome Forecast
Issued by NWS

Home | Current Version | Previous Version | Text Only | Print | Product List | Glossary On
Versions: 1 2 3 4 5 6 7 8 9 10 11 12 13 14
000
FTUS46 KSEW 261100
TAFBLI
TAF
KBLI 261127Z 2612/2712 00000KT P6SM SKC
     FM261400 17005KT P6SM FEW025
     FM261800 18008KT P6SM SKC
     FM270000 20006KT P6SM SKC
     FM270600 19003KT P6SM SKC=

USA.gov is the U.S. government's official web portal to all federal, state and local government web resources and services.